sensor_id;sensor_type;location;lat;lon;timestamp;pressure;altitude;pressure_sealevel;temperature;humidity
67052;BME280;53957;47.222;18.670;2023-01-28T00:01:33;100281.34;;;0.01;100.00
67052;BME280;53957;47.222;18.670;2023-01-28T00:04:36;100288.56;;;0.12;100.00
67052;BME280;53957;47.222;18.670;2023-01-28T00:07:39;100290.94;;;0.20;100.00
67052;BME280;53957;47.222;18.670;2023-01-28T00:10:42;100289.41;;;0.06;100.00
67052;BME280;53957;47.222;18.670;2023-01-28T00:13:45;100284.59;;;0.03;100.00
67052;BME280;53957;47.222;18.670;2023-01-28T00:16:48;100287.00;;;0.04;100.00
67052;BME280;53957;47.222;18.670;2023-01-28T00:19:51;100287.72;;;0.18;100.00
67052;BME280;53957;47.222;18.670;2023-01-28T00:22:54;100281.34;;;0.01;100.00
67052;BME280;53957;47.222;18.670;2023-01-28T00:26:03;100295.06;;;0.03;100.00
67052;BME280;53957;47.222;18.670;2023-01-28T00:29:07;100297.31;;;-0.01;100.00
67052;BME280;53957;47.222;18.670;2023-01-28T00:32:11;100296.88;;;0.02;100.00
67052;BME280;53957;47.222;18.670;2023-01-28T00:35:14;100294.78;;;0.18;100.00
67052;BME280;53957;47.222;18.670;2023-01-28T00:38:17;100295.88;;;0.03;100.00
67052;BME280;53957;47.222;18.670;2023-01-28T00:41:23;100298.44;;;0.10;100.00
67052;BME280;53957;47.222;18.670;2023-01-28T00:44:26;100295.91;;;-0.04;100.00
67052;BME280;53957;47.222;18.670;2023-01-28T00:47:29;100296.50;;;-0.02;100.00
67052;BME280;53957;47.222;18.670;2023-01-28T00:50:32;100295.81;;;0.10;100.00
67052;BME280;53957;47.222;18.670;2023-01-28T00:53:35;100303.19;;;-0.06;100.00
67052;BME280;53957;47.222;18.670;2023-01-28T00:56:40;100304.06;;;0.13;100.00
67052;BME280;53957;47.222;18.670;2023-01-28T00:59:43;100303.72;;;0.03;100.00
67052;BME280;53957;47.222;18.670;2023-01-28T01:02:46;100305.19;;;-0.01;100.00
67052;BME280;53957;47.222;18.670;2023-01-28T01:05:49;100312.84;;;0.01;100.00
67052;BME280;53957;47.222;18.670;2023-01-28T01:08:52;100309.97;;;0.09;100.00
67052;BME280;53957;47.222;18.670;2023-01-28T01:11:55;100312.84;;;0.01;100.00
67052;BME280;53957;47.222;18.670;2023-01-28T01:14:58;100312.06;;;-0.07;100.00
67052;BME280;53957;47.222;18.670;2023-01-28T01:18:01;100309.19;;;0.02;100.00
67052;BME280;53957;47.222;18.670;2023-01-28T01:21:07;100309.69;;;0.17;100.00
67052;BME280;53957;47.222;18.670;2023-01-28T01:24:11;100306.75;;;0.07;100.00
67052;BME280;53957;47.222;18.670;2023-01-28T01:27:14;100316.06;;;0.03;100.00
67052;BME280;53957;47.222;18.670;2023-01-28T01:30:17;100311.84;;;-0.05;100.00
67052;BME280;53957;47.222;18.670;2023-01-28T01:33:22;100315.28;;;-0.05;100.00
67052;BME280;53957;47.222;18.670;2023-01-28T01:36:25;100311.03;;;-0.06;100.00
67052;BME280;53957;47.222;18.670;2023-01-28T01:39:28;100310.38;;;0.06;100.00
67052;BME280;53957;47.222;18.670;2023-01-28T01:42:32;100311.22;;;-0.01;100.00
67052;BME280;53957;47.222;18.670;2023-01-28T01:45:34;100305.81;;;-0.06;100.00
67052;BME280;53957;47.222;18.670;2023-01-28T01:48:38;100311.72;;;-0.17;100.00
67052;BME280;53957;47.222;18.670;2023-01-28T01:51:42;100309.88;;;-0.10;100.00
67052;BME280;53957;47.222;18.670;2023-01-28T01:54:49;100313.06;;;-0.08;100.00
67052;BME280;53957;47.222;18.670;2023-01-28T01:57:56;100315.34;;;-0.18;100.00
67052;BME280;53957;47.222;18.670;2023-01-28T02:01:01;100319.97;;;-0.20;100.00
67052;BME280;53957;47.222;18.670;2023-01-28T02:04:09;100312.72;;;-0.18;100.00
67052;BME280;53957;47.222;18.670;2023-01-28T02:07:14;100322.37;;;-0.19;100.00
67052;BME280;53957;47.222;18.670;2023-01-28T02:10:18;100317.97;;;-0.18;100.00
67052;BME280;53957;47.222;18.670;2023-01-28T02:13:24;100318.63;;;-0.29;100.00
67052;BME280;53957;47.222;18.670;2023-01-28T02:16:30;100310.69;;;-0.16;100.00
67052;BME280;53957;47.222;18.670;2023-01-28T02:19:38;100323.22;;;-0.25;100.00
67052;BME280;53957;47.222;18.670;2023-01-28T02:22:56;100322.84;;;-0.28;100.00
67052;BME280;53957;47.222;18.670;2023-01-28T02:26:18;100324.66;;;-0.22;100.00
67052;BME280;53957;47.222;18.670;2023-01-28T02:29:43;100326.66;;;-0.31;100.00
67052;BME280;53957;47.222;18.670;2023-01-28T02:32:53;100321.63;;;-0.26;100.00
67052;BME280;53957;47.222;18.670;2023-01-28T02:36:05;100314.56;;;-0.25;100.00
67052;BME280;53957;47.222;18.670;2023-01-28T02:39:17;100320.81;;;-0.26;100.00
67052;BME280;53957;47.222;18.670;2023-01-28T02:42:33;100321.47;;;-0.38;100.00
67052;BME280;53957;47.222;18.670;2023-01-28T02:45:38;100316.84;;;-0.36;100.00
67052;BME280;53957;47.222;18.670;2023-01-28T02:49:02;100310.19;;;-0.38;100.00
67052;BME280;53957;47.222;18.670;2023-01-28T02:52:36;100311.16;;;-0.26;100.00
67052;BME280;53957;47.222;18.670;2023-01-28T02:59:26;100310.94;;;-0.31;100.00
67052;BME280;53957;47.222;18.670;2023-01-28T03:03:04;100310.31;;;-0.26;100.00
67052;BME280;53957;47.222;18.670;2023-01-28T03:06:14;100312.78;;;-0.31;100.00
67052;BME280;53957;47.222;18.670;2023-01-28T03:09:19;100313.69;;;-0.12;100.00
67052;BME280;53957;47.222;18.670;2023-01-28T03:12:30;100313.38;;;-0.36;100.00
67052;BME280;53957;47.222;18.670;2023-01-28T03:15:53;100313.78;;;-0.33;100.00
67052;BME280;53957;47.222;18.670;2023-01-28T03:19:16;100317.22;;;-0.39;100.00
67052;BME280;53957;47.222;18.670;2023-01-28T03:22:41;100319.25;;;-0.41;100.00
67052;BME280;53957;47.222;18.670;2023-01-28T03:26:11;100327.50;;;-0.37;100.00
67052;BME280;53957;47.222;18.670;2023-01-28T03:29:35;100321.03;;;-0.28;100.00
67052;BME280;53957;47.222;18.670;2023-01-28T03:32:58;100325.25;;;-0.27;100.00
67052;BME280;53957;47.222;18.670;2023-01-28T03:36:21;100322.25;;;-0.30;100.00
67052;BME280;53957;47.222;18.670;2023-01-28T03:39:44;100318.37;;;-0.21;100.00
67052;BME280;53957;47.222;18.670;2023-01-28T03:42:47;100322.97;;;-0.10;100.00
67052;BME280;53957;47.222;18.670;2023-01-28T03:45:54;100322.66;;;-0.34;100.00
67052;BME280;53957;47.222;18.670;2023-01-28T03:48:57;100313.16;;;-0.35;100.00
67052;BME280;53957;47.222;18.670;2023-01-28T03:52:00;100315.37;;;-0.31;100.00
67052;BME280;53957;47.222;18.670;2023-01-28T03:55:04;100319.06;;;-0.39;100.00
67052;BME280;53957;47.222;18.670;2023-01-28T03:58:20;100313.38;;;-0.36;100.00
67052;BME280;53957;47.222;18.670;2023-01-28T04:01:23;100315.56;;;-0.26;100.00
67052;BME280;53957;47.222;18.670;2023-01-28T04:04:28;100321.81;;;-0.27;100.00
67052;BME280;53957;47.222;18.670;2023-01-28T04:07:34;100318.63;;;-0.29;100.00
67052;BME280;53957;47.222;18.670;2023-01-28T04:10:38;100325.31;;;-0.40;100.00
67052;BME280;53957;47.222;18.670;2023-01-28T04:13:43;100321.84;;;-0.34;100.00
67052;BME280;53957;47.222;18.670;2023-01-28T04:16:46;100321.03;;;-0.35;100.00
67052;BME280;53957;47.222;18.670;2023-01-28T04:19:50;100326.88;;;-0.33;100.00
67052;BME280;53957;47.222;18.670;2023-01-28T04:22:53;100323.28;;;-0.45;100.00
67052;BME280;53957;47.222;18.670;2023-01-28T04:25:57;100333.56;;;-0.37;100.00
67052;BME280;53957;47.222;18.670;2023-01-28T04:29:00;100324.31;;;-0.46;100.00
67052;BME280;53957;47.222;18.670;2023-01-28T04:32:03;100334.38;;;-0.43;100.00
67052;BME280;53957;47.222;18.670;2023-01-28T04:35:07;100333.78;;;-0.45;100.00
67052;BME280;53957;47.222;18.670;2023-01-28T04:38:10;100342.25;;;-0.43;100.00
67052;BME280;53957;47.222;18.670;2023-01-28T04:41:13;100348.72;;;-0.45;100.00
67052;BME280;53957;47.222;18.670;2023-01-28T04:44:16;100343.22;;;-0.37;100.00
67052;BME280;53957;47.222;18.670;2023-01-28T04:47:20;100342.44;;;-0.38;100.00
67052;BME280;53957;47.222;18.670;2023-01-28T04:50:23;100352.56;;;-0.55;100.00
67052;BME280;53957;47.222;18.670;2023-01-28T04:53:27;100345.91;;;-0.57;100.00
67052;BME280;53957;47.222;18.670;2023-01-28T04:56:30;100351.16;;;-0.51;100.00
67052;BME280;53957;47.222;18.670;2023-01-28T04:59:34;100353.13;;;-0.46;100.00
67052;BME280;53957;47.222;18.670;2023-01-28T05:02:38;100352.56;;;-0.48;100.00
67052;BME280;53957;47.222;18.670;2023-01-28T05:05:41;100355.16;;;-0.48;100.00
67052;BME280;53957;47.222;18.670;2023-01-28T05:08:44;100366.66;;;-0.49;100.00
67052;BME280;53957;47.222;18.670;2023-01-28T05:11:48;100359.19;;;-0.45;100.00
67052;BME280;53957;47.222;18.670;2023-01-28T05:14:51;100354.78;;;-0.58;100.00
67052;BME280;53957;47.222;18.670;2023-01-28T05:17:54;100350.53;;;-0.59;100.00
67052;BME280;53957;47.222;18.670;2023-01-28T05:21:03;100357.22;;;-0.57;100.00
67052;BME280;53957;47.222;18.670;2023-01-28T05:24:07;100368.47;;;-0.56;100.00
67052;BME280;53957;47.222;18.670;2023-01-28T05:27:10;100372.28;;;-0.52;100.00
67052;BME280;53957;47.222;18.670;2023-01-28T05:30:14;100367.06;;;-0.66;100.00
67052;BME280;53957;47.222;18.670;2023-01-28T05:33:18;100373.50;;;-0.48;100.00
67052;BME280;53957;47.222;18.670;2023-01-28T05:36:22;100376.34;;;-0.56;100.00
67052;BME280;53957;47.222;18.670;2023-01-28T05:39:26;100364.03;;;-0.56;100.00
67052;BME280;53957;47.222;18.670;2023-01-28T05:42:29;100376.13;;;-0.48;100.00
67052;BME280;53957;47.222;18.670;2023-01-28T05:45:32;100371.91;;;-0.49;100.00
67052;BME280;53957;47.222;18.670;2023-01-28T05:48:35;100376.31;;;-0.50;100.00
67052;BME280;53957;47.222;18.670;2023-01-28T05:51:39;100379.75;;;-0.56;100.00
67052;BME280;53957;47.222;18.670;2023-01-28T05:54:42;100383.81;;;-0.60;100.00
67052;BME280;53957;47.222;18.670;2023-01-28T05:57:47;100394.69;;;-0.56;100.00
67052;BME280;53957;47.222;18.670;2023-01-28T06:00:53;100389.25;;;-0.61;100.00
67052;BME280;53957;47.222;18.670;2023-01-28T06:03:58;100393.25;;;-0.52;100.00
67052;BME280;53957;47.222;18.670;2023-01-28T06:07:03;100390.66;;;-0.59;100.00
67052;BME280;53957;47.222;18.670;2023-01-28T06:10:06;100393.88;;;-0.57;100.00
67052;BME280;53957;47.222;18.670;2023-01-28T06:13:10;100405.19;;;-0.70;100.00
67052;BME280;53957;47.222;18.670;2023-01-28T06:16:13;100405.56;;;-0.66;100.00
67052;BME280;53957;47.222;18.670;2023-01-28T06:19:16;100407.38;;;-0.73;100.00
67052;BME280;53957;47.222;18.670;2023-01-28T06:22:20;100405.38;;;-0.78;100.00
67052;BME280;53957;47.222;18.670;2023-01-28T06:25:22;100412.81;;;-0.68;100.00
67052;BME280;53957;47.222;18.670;2023-01-28T06:28:26;100412.63;;;-0.67;100.00
67052;BME280;53957;47.222;18.670;2023-01-28T06:31:29;100408.00;;;-0.71;100.00
67052;BME280;53957;47.222;18.670;2023-01-28T06:34:32;100419.06;;;-0.69;100.00
67052;BME280;53957;47.222;18.670;2023-01-28T06:37:35;100429.16;;;-0.53;100.00
67052;BME280;53957;47.222;18.670;2023-01-28T06:40:38;100430.34;;;-0.62;100.00
67052;BME280;53957;47.222;18.670;2023-01-28T06:43:41;100434.41;;;-0.73;100.00
67052;BME280;53957;47.222;18.670;2023-01-28T06:46:44;100446.47;;;-0.58;100.00
67052;BME280;53957;47.222;18.670;2023-01-28T06:49:47;100449.50;;;-0.48;100.00
67052;BME280;53957;47.222;18.670;2023-01-28T06:52:50;100450.09;;;-0.46;100.00
67052;BME280;53957;47.222;18.670;2023-01-28T06:55:53;100455.94;;;-0.44;100.00
67052;BME280;53957;47.222;18.670;2023-01-28T06:58:56;100453.94;;;-0.55;100.00
67052;BME280;53957;47.222;18.670;2023-01-28T07:01:59;100463.78;;;-0.37;100.00
67052;BME280;53957;47.222;18.670;2023-01-28T07:05:03;100464.00;;;-0.45;100.00
67052;BME280;53957;47.222;18.670;2023-01-28T07:08:07;100473.50;;;-0.58;100.00
67052;BME280;53957;47.222;18.670;2023-01-28T07:11:10;100477.91;;;-0.31;100.00
67052;BME280;53957;47.222;18.670;2023-01-28T07:14:13;100476.06;;;-0.31;100.00
67052;BME280;53957;47.222;18.670;2023-01-28T07:17:15;100483.16;;;-0.38;100.00
67052;BME280;53957;47.222;18.670;2023-01-28T07:20:19;100479.50;;;-0.30;100.00
67052;BME280;53957;47.222;18.670;2023-01-28T07:23:22;100484.53;;;-0.29;100.00
67052;BME280;53957;47.222;18.670;2023-01-28T07:26:25;100483.53;;;-0.28;100.00
67052;BME280;53957;47.222;18.670;2023-01-28T07:29:28;100485.56;;;-0.23;100.00
67052;BME280;53957;47.222;18.670;2023-01-28T07:32:31;100484.50;;;-0.09;100.00
67052;BME280;53957;47.222;18.670;2023-01-28T07:35:34;100483.50;;;-0.08;100.00
67052;BME280;53957;47.222;18.670;2023-01-28T07:38:37;100485.28;;;0.12;100.00
67052;BME280;53957;47.222;18.670;2023-01-28T07:41:40;100487.53;;;0.02;100.00
67052;BME280;53957;47.222;18.670;2023-01-28T07:44:45;100487.53;;;0.02;100.00
67052;BME280;53957;47.222;18.670;2023-01-28T07:48:03;100487.50;;;0.08;100.00
67052;BME280;53957;47.222;18.670;2023-01-28T07:51:07;100481.84;;;0.05;100.00
67052;BME280;53957;47.222;18.670;2023-01-28T07:54:10;100491.69;;;0.23;100.00
67052;BME280;53957;47.222;18.670;2023-01-28T07:57:12;100497.56;;;0.18;100.00
67052;BME280;53957;47.222;18.670;2023-01-28T08:00:16;100492.13;;;0.13;100.00
67052;BME280;53957;47.222;18.670;2023-01-28T08:03:20;100495.19;;;0.03;100.00
67052;BME280;53957;47.222;18.670;2023-01-28T08:06:23;100501.78;;;0.19;100.00
67052;BME280;53957;47.222;18.670;2023-01-28T08:09:26;100504.19;;;0.21;100.00
67052;BME280;53957;47.222;18.670;2023-01-28T08:12:28;100492.66;;;0.28;100.00
67052;BME280;53957;47.222;18.670;2023-01-28T08:15:32;100495.94;;;0.17;100.00
67052;BME280;53957;47.222;18.670;2023-01-28T08:18:37;100498.91;;;0.41;100.00
67052;BME280;53957;47.222;18.670;2023-01-28T08:21:40;100509.88;;;0.70;100.00
67052;BME280;53957;47.222;18.670;2023-01-28T08:24:43;100511.94;;;0.61;100.00
67052;BME280;53957;47.222;18.670;2023-01-28T08:27:46;100512.56;;;0.56;100.00
67052;BME280;53957;47.222;18.670;2023-01-28T08:30:49;100510.66;;;0.70;100.00
67052;BME280;53957;47.222;18.670;2023-01-28T08:33:52;100515.31;;;0.75;100.00
67052;BME280;53957;47.222;18.670;2023-01-28T08:36:55;100515.31;;;0.75;100.00
67052;BME280;53957;47.222;18.670;2023-01-28T08:39:58;100520.59;;;0.61;100.00
67052;BME280;53957;47.222;18.670;2023-01-28T08:43:01;100520.47;;;0.43;100.00
67052;BME280;53957;47.222;18.670;2023-01-28T08:46:05;100526.84;;;0.67;100.00
67052;BME280;53957;47.222;18.670;2023-01-28T08:49:09;100530.59;;;0.39;100.00
67052;BME280;53957;47.222;18.670;2023-01-28T08:52:12;100535.75;;;0.66;100.00
67052;BME280;53957;47.222;18.670;2023-01-28T08:55:15;100537.75;;;0.64;100.00
67052;BME280;53957;47.222;18.670;2023-01-28T08:58:21;100530.31;;;0.54;100.00
67052;BME280;53957;47.222;18.670;2023-01-28T09:01:24;100535.00;;;0.52;100.00
67052;BME280;53957;47.222;18.670;2023-01-28T09:04:29;100538.63;;;0.51;100.00
67052;BME280;53957;47.222;18.670;2023-01-28T09:07:34;100536.41;;;0.55;100.00
67052;BME280;53957;47.222;18.670;2023-01-28T09:10:38;100549.69;;;0.60;100.00
67052;BME280;53957;47.222;18.670;2023-01-28T09:13:42;100546.91;;;0.93;100.00
67052;BME280;53957;47.222;18.670;2023-01-28T09:16:45;100551.44;;;0.79;100.00
67052;BME280;53957;47.222;18.670;2023-01-28T09:19:49;100552.91;;;0.69;100.00
67052;BME280;53957;47.222;18.670;2023-01-28T09:22:52;100549.03;;;0.78;100.00
67052;BME280;53957;47.222;18.670;2023-01-28T09:25:59;100548.81;;;0.73;100.00
67052;BME280;53957;47.222;18.670;2023-01-28T09:29:03;100554.06;;;0.79;100.00
67052;BME280;53957;47.222;18.670;2023-01-28T09:32:06;100550.66;;;0.72;100.00
67052;BME280;53957;47.222;18.670;2023-01-28T09:35:09;100553.75;;;0.56;100.00
67052;BME280;53957;47.222;18.670;2023-01-28T09:38:13;100549.88;;;0.72;100.00
67052;BME280;53957;47.222;18.670;2023-01-28T09:41:25;100553.47;;;0.77;100.00
67052;BME280;53957;47.222;18.670;2023-01-28T09:44:42;100546.50;;;0.96;100.00
67052;BME280;53957;47.222;18.670;2023-01-28T09:47:55;100552.41;;;0.85;100.00
67052;BME280;53957;47.222;18.670;2023-01-28T09:51:01;100548.09;;;1.04;100.00
67052;BME280;53957;47.222;18.670;2023-01-28T09:54:23;100556.59;;;1.00;100.00
67052;BME280;53957;47.222;18.670;2023-01-28T09:57:40;100551.69;;;1.10;100.00
67052;BME280;53957;47.222;18.670;2023-01-28T10:00:56;100556.81;;;0.98;100.00
67052;BME280;53957;47.222;18.670;2023-01-28T10:07:44;100557.12;;;1.15;100.00
67052;BME280;53957;47.222;18.670;2023-01-28T10:21:00;100549.69;;;1.63;100.00
67052;BME280;53957;47.222;18.670;2023-01-28T10:24:04;100550.56;;;1.56;100.00
67052;BME280;53957;47.222;18.670;2023-01-28T10:27:18;100550.28;;;1.90;100.00
67052;BME280;53957;47.222;18.670;2023-01-28T10:30:30;100541.69;;;2.01;100.00
67052;BME280;53957;47.222;18.670;2023-01-28T10:33:36;100546.50;;;2.04;100.00
67052;BME280;53957;47.222;18.670;2023-01-28T10:36:42;100545.19;;;1.70;100.00
67052;BME280;53957;47.222;18.670;2023-01-28T10:39:45;100545.09;;;1.83;100.00
67052;BME280;53957;47.222;18.670;2023-01-28T10:42:48;100539.91;;;1.95;100.00
67052;BME280;53957;47.222;18.670;2023-01-28T10:52:14;100552.88;;;1.97;100.00
67052;BME280;53957;47.222;18.670;2023-01-28T10:55:17;100542.69;;;1.82;100.00
67052;BME280;53957;47.222;18.670;2023-01-28T10:58:23;100542.63;;;2.07;100.00
67052;BME280;53957;47.222;18.670;2023-01-28T11:01:51;100550.91;;;2.29;100.00
67052;BME280;53957;47.222;18.670;2023-01-28T11:05:19;100551.50;;;2.13;100.00
67052;BME280;53957;47.222;18.670;2023-01-28T11:08:29;100540.16;;;2.12;100.00
67052;BME280;53957;47.222;18.670;2023-01-28T11:11:32;100534.75;;;2.44;100.00
67052;BME280;53957;47.222;18.670;2023-01-28T11:14:43;100538.75;;;2.47;100.00
67052;BME280;53957;47.222;18.670;2023-01-28T11:17:59;100546.97;;;2.38;100.00
67052;BME280;53957;47.222;18.670;2023-01-28T11:21:05;100533.44;;;2.53;100.00
67052;BME280;53957;47.222;18.670;2023-01-28T11:24:14;100544.12;;;2.40;100.00
67052;BME280;53957;47.222;18.670;2023-01-28T11:27:30;100542.56;;;2.69;100.00
67052;BME280;53957;47.222;18.670;2023-01-28T11:30:36;100538.91;;;2.70;100.00
67052;BME280;53957;47.222;18.670;2023-01-28T11:37:11;100542.34;;;2.52;100.00
67052;BME280;53957;47.222;18.670;2023-01-28T11:40:18;100548.34;;;2.78;100.00
67052;BME280;53957;47.222;18.670;2023-01-28T11:43:26;100536.91;;;2.84;100.00
67052;BME280;53957;47.222;18.670;2023-01-28T12:03:35;100534.69;;;2.14;100.00
67052;BME280;53957;47.222;18.670;2023-01-28T12:07:04;100533.97;;;2.25;100.00
67052;BME280;53957;47.222;18.670;2023-01-28T12:10:51;100520.28;;;2.35;100.00
67052;BME280;53957;47.222;18.670;2023-01-28T12:20:51;100527.12;;;2.17;100.00
67052;BME280;53957;47.222;18.670;2023-01-28T12:27:10;100524.81;;;2.28;100.00
67052;BME280;53957;47.222;18.670;2023-01-28T12:44:23;100522.91;;;2.53;100.00
67052;BME280;53957;47.222;18.670;2023-01-28T12:47:33;100528.44;;;2.64;100.00
67052;BME280;53957;47.222;18.670;2023-01-28T12:50:52;100521.84;;;2.73;100.00
67052;BME280;53957;47.222;18.670;2023-01-28T12:54:05;100525.69;;;2.58;100.00
67052;BME280;53957;47.222;18.670;2023-01-28T12:57:22;100528.25;;;2.47;100.00
67052;BME280;53957;47.222;18.670;2023-01-28T13:03:52;100532.41;;;2.73;100.00
67052;BME280;53957;47.222;18.670;2023-01-28T13:07:13;100535.00;;;2.92;100.00
67052;BME280;53957;47.222;18.670;2023-01-28T13:10:27;100532.47;;;2.66;100.00
67052;BME280;53957;47.222;18.670;2023-01-28T13:13:33;100540.16;;;2.49;100.00
67052;BME280;53957;47.222;18.670;2023-01-28T13:16:38;100548.06;;;2.49;100.00
67052;BME280;53957;47.222;18.670;2023-01-28T13:19:41;100549.16;;;2.60;100.00
67052;BME280;53957;47.222;18.670;2023-01-28T13:22:44;100548.66;;;2.51;100.00
67052;BME280;53957;47.222;18.670;2023-01-28T13:25:51;100549.75;;;2.62;100.00
67052;BME280;53957;47.222;18.670;2023-01-28T13:32:30;100556.81;;;2.62;100.00
67052;BME280;53957;47.222;18.670;2023-01-28T13:35:38;100550.31;;;2.27;100.00
67052;BME280;53957;47.222;18.670;2023-01-28T13:38:43;100563.19;;;2.54;100.00
67052;BME280;53957;47.222;18.670;2023-01-28T13:42:26;100569.28;;;2.36;100.00
67052;BME280;53957;47.222;18.670;2023-01-28T13:45:33;100569.47;;;2.16;100.00
67052;BME280;53957;47.222;18.670;2023-01-28T13:48:51;100572.19;;;2.28;100.00
67052;BME280;53957;47.222;18.670;2023-01-28T13:52:05;100577.13;;;2.17;100.00
67052;BME280;53957;47.222;18.670;2023-01-28T13:55:36;100590.09;;;2.19;100.00
67052;BME280;53957;47.222;18.670;2023-01-28T14:02:14;100583.28;;;2.11;100.00
67052;BME280;53957;47.222;18.670;2023-01-28T14:15:55;100601.28;;;1.89;100.00
67052;BME280;53957;47.222;18.670;2023-01-28T14:19:01;100593.59;;;1.87;100.00
67052;BME280;53957;47.222;18.670;2023-01-28T14:22:08;100597.78;;;1.70;100.00
67052;BME280;53957;47.222;18.670;2023-01-28T14:25:15;100601.78;;;1.79;100.00
67052;BME280;53957;47.222;18.670;2023-01-28T14:32:05;100606.37;;;1.58;100.00
67052;BME280;53957;47.222;18.670;2023-01-28T14:35:33;100613.31;;;1.78;100.00
67052;BME280;53957;47.222;18.670;2023-01-28T14:38:42;100612.47;;;1.84;100.00
67052;BME280;53957;47.222;18.670;2023-01-28T14:41:48;100618.84;;;1.70;100.00
67052;BME280;53957;47.222;18.670;2023-01-28T14:52:09;100627.50;;;1.70;100.00
67052;BME280;53957;47.222;18.670;2023-01-28T14:56:19;100621.59;;;1.82;100.00
67052;BME280;53957;47.222;18.670;2023-01-28T14:58:53;100620.47;;;1.64;100.00
67052;BME280;53957;47.222;18.670;2023-01-28T15:01:59;100633.81;;;1.69;100.00
67052;BME280;53957;47.222;18.670;2023-01-28T15:05:07;100633.00;;;1.69;100.00
67052;BME280;53957;47.222;18.670;2023-01-28T15:08:21;100637.37;;;1.50;100.00
67052;BME280;53957;47.222;18.670;2023-01-28T15:11:25;100634.09;;;1.54;100.00
67052;BME280;53957;47.222;18.670;2023-01-28T15:14:29;100635.72;;;1.55;100.00
67052;BME280;53957;47.222;18.670;2023-01-28T15:17:33;100636.38;;;1.44;100.00
67052;BME280;53957;47.222;18.670;2023-01-28T15:20:37;100638.94;;;1.57;100.00
67052;BME280;53957;47.222;18.670;2023-01-28T15:34:25;100647.41;;;1.27;100.00
67052;BME280;53957;47.222;18.670;2023-01-28T15:37:32;100661.13;;;1.29;100.00
67052;BME280;53957;47.222;18.670;2023-01-28T15:40:43;100663.97;;;1.28;100.00
67052;BME280;53957;47.222;18.670;2023-01-28T15:43:48;100660.87;;;1.38;100.00
67052;BME280;53957;47.222;18.670;2023-01-28T15:46:52;100657.59;;;1.10;100.00
67052;BME280;53957;47.222;18.670;2023-01-28T15:49:58;100667.66;;;1.20;100.00
67052;BME280;53957;47.222;18.670;2023-01-28T15:53:07;100664.84;;;1.08;100.00
67052;BME280;53957;47.222;18.670;2023-01-28T15:56:13;100679.44;;;1.04;100.00
67052;BME280;53957;47.222;18.670;2023-01-28T15:59:20;100677.00;;;1.03;100.00
67052;BME280;53957;47.222;18.670;2023-01-28T16:02:26;100677.37;;;1.13;100.00
67052;BME280;53957;47.222;18.670;2023-01-28T16:05:40;100677.75;;;1.17;100.00
67052;BME280;53957;47.222;18.670;2023-01-28T16:08:53;100684.09;;;0.95;100.00
67052;BME280;53957;47.222;18.670;2023-01-28T16:12:05;100692.53;;;1.11;100.00
67052;BME280;53957;47.222;18.670;2023-01-28T16:15:15;100689.94;;;0.98;100.00
67052;BME280;53957;47.222;18.670;2023-01-28T16:18:44;100694.81;;;0.87;100.00
67052;BME280;53957;47.222;18.670;2023-01-28T16:21:49;100703.12;;;0.77;100.00
67052;BME280;53957;47.222;18.670;2023-01-28T16:24:53;100698.09;;;0.76;100.00
67052;BME280;53957;47.222;18.670;2023-01-28T16:27:57;100700.12;;;0.67;100.00
67052;BME280;53957;47.222;18.670;2023-01-28T16:31:00;100699.28;;;0.80;100.00
67052;BME280;53957;47.222;18.670;2023-01-28T16:34:03;100700.91;;;0.81;100.00
67052;BME280;53957;47.222;18.670;2023-01-28T16:37:09;100707.00;;;0.61;100.00
67052;BME280;53957;47.222;18.670;2023-01-28T16:40:15;100708.00;;;0.60;100.00
67052;BME280;53957;47.222;18.670;2023-01-28T16:43:19;100705.37;;;0.67;100.00
67052;BME280;53957;47.222;18.670;2023-01-28T16:46:25;100713.88;;;0.62;100.00
67052;BME280;53957;47.222;18.670;2023-01-28T16:49:29;100721.34;;;0.52;100.00
67052;BME280;53957;47.222;18.670;2023-01-28T16:52:32;100708.16;;;0.79;100.00
67052;BME280;53957;47.222;18.670;2023-01-28T16:55:35;100719.72;;;0.71;100.00
67052;BME280;53957;47.222;18.670;2023-01-28T16:58:38;100716.09;;;0.66;100.00
67052;BME280;53957;47.222;18.670;2023-01-28T17:01:42;100723.16;;;0.72;100.00
67052;BME280;53957;47.222;18.670;2023-01-28T17:04:45;100722.13;;;0.66;100.00
67052;BME280;53957;47.222;18.670;2023-01-28T17:07:49;100727.59;;;0.64;100.00
67052;BME280;53957;47.222;18.670;2023-01-28T17:10:55;100720.31;;;0.67;100.00
67052;BME280;53957;47.222;18.670;2023-01-28T17:13:59;100731.66;;;0.47;100.00
67052;BME280;53957;47.222;18.670;2023-01-28T17:17:02;100729.81;;;0.54;100.00
67052;BME280;53957;47.222;18.670;2023-01-28T17:20:06;100734.88;;;0.62;100.00
67052;BME280;53957;47.222;18.670;2023-01-28T17:23:14;100733.88;;;0.50;100.00
67052;BME280;53957;47.222;18.670;2023-01-28T17:26:17;100742.56;;;0.57;100.00
67052;BME280;53957;47.222;18.670;2023-01-28T17:29:20;100742.13;;;0.67;100.00
67052;BME280;53957;47.222;18.670;2023-01-28T17:39:47;100746.19;;;0.56;100.00
67052;BME280;53957;47.222;18.670;2023-01-28T17:42:50;100752.63;;;0.60;100.00
67052;BME280;53957;47.222;18.670;2023-01-28T17:45:53;100753.03;;;0.64;100.00
67052;BME280;53957;47.222;18.670;2023-01-28T17:48:56;100758.28;;;0.57;100.00
67052;BME280;53957;47.222;18.670;2023-01-28T17:51:59;100768.38;;;0.40;100.00
67052;BME280;53957;47.222;18.670;2023-01-28T17:55:03;100768.41;;;0.47;100.00
67052;BME280;53957;47.222;18.670;2023-01-28T17:58:06;100777.25;;;0.39;100.00